createdAt,value
2022-09-23T00:01:29.737Z,2.45
2022-09-23T00:03:59.663Z,2.80
2022-09-23T00:06:30.055Z,2.08
2022-09-23T00:08:57.110Z,1.83
2022-09-23T00:11:27.440Z,1.70
2022-09-23T00:13:56.950Z,2.17
2022-09-23T00:16:28.620Z,1.90
2022-09-23T00:18:56.195Z,1.70
2022-09-23T00:21:23.873Z,2.22
2022-09-23T00:23:51.884Z,1.95
2022-09-23T00:26:21.005Z,2.20
2022-09-23T00:28:49.810Z,2.08
2022-09-23T00:31:25.689Z,2.33
2022-09-23T00:33:57.386Z,2.30
2022-09-23T00:36:25.639Z,1.90
2022-09-23T00:38:53.539Z,2.53
2022-09-23T00:41:21.611Z,2.05
2022-09-23T00:44:01.831Z,2.03
2022-09-23T00:46:37.754Z,1.80
2022-09-23T00:49:11.150Z,2.13
2022-09-23T00:51:41.784Z,1.80
2022-09-23T00:54:09.711Z,1.80
2022-09-23T00:56:40.331Z,1.50
2022-09-23T01:01:38.362Z,2.00
2022-09-23T01:04:07.931Z,1.75
2022-09-23T01:06:35.186Z,2.50
2022-09-23T01:09:02.758Z,1.85
2022-09-23T01:11:45.307Z,1.80
2022-09-23T01:14:37.970Z,1.98
2022-09-23T01:17:24.377Z,2.03
2022-09-23T01:20:10.215Z,2.33
2022-09-23T01:23:11.138Z,1.30
2022-09-23T01:26:05.042Z,2.00
2022-09-23T01:31:24.756Z,1.65
2022-09-23T01:34:01.819Z,1.63
2022-09-23T01:36:45.930Z,2.40
2022-09-23T01:39:16.784Z,2.13
2022-09-23T01:41:56.773Z,2.25
2022-09-23T01:44:36.055Z,1.90
2022-09-23T01:47:11.127Z,1.60
2022-09-23T01:49:58.218Z,1.58
2022-09-23T01:52:37.446Z,1.60
2022-09-23T01:55:08.851Z,1.67
2022-09-23T01:57:43.267Z,2.50
2022-09-23T02:00:22.538Z,1.77
2022-09-23T02:03:04.686Z,2.65
2022-09-23T02:05:46.296Z,2.00
2022-09-23T02:08:39.369Z,2.40
2022-09-23T02:11:16.908Z,2.20
2022-09-23T02:14:02.385Z,1.88
2022-09-23T02:16:35.080Z,2.13
2022-09-23T02:19:15.092Z,2.50
2022-09-23T02:21:52.197Z,2.15
2022-09-23T02:24:35.107Z,2.80
2022-09-23T02:27:33.459Z,2.73
2022-09-23T02:30:13.059Z,3.00
2022-09-23T02:32:57.563Z,2.42
2022-09-23T02:36:07.201Z,2.33
2022-09-23T02:38:44.250Z,2.28
2022-09-23T02:41:26.628Z,2.70
2022-09-23T02:44:00.103Z,2.95
2022-09-23T02:46:30.492Z,1.98
2022-09-23T02:49:13.235Z,2.53
2022-09-23T02:51:41.409Z,2.80
2022-09-23T02:54:14.923Z,2.67
2022-09-23T02:56:42.389Z,3.47
2022-09-23T02:59:10.896Z,3.67
2022-09-23T03:02:13.843Z,5.45
2022-09-23T03:05:04.187Z,4.30
2022-09-23T03:08:04.476Z,4.10
2022-09-23T03:10:37.214Z,3.83
2022-09-23T03:13:29.142Z,3.53
2022-09-23T03:16:11.940Z,3.33
2022-09-23T03:18:52.139Z,3.05
2022-09-23T03:21:47.340Z,3.53
2022-09-23T03:24:15.924Z,3.40
2022-09-23T03:26:47.486Z,3.20
2022-09-23T03:29:17.446Z,3.67
2022-09-23T03:31:45.319Z,3.00
2022-09-23T03:34:28.767Z,4.07
2022-09-23T03:37:01.078Z,3.40
2022-09-23T03:39:42.529Z,3.13
2022-09-23T03:42:24.376Z,3.95
2022-09-23T03:44:57.606Z,2.85
2022-09-23T03:47:28.979Z,3.03
2022-09-23T03:49:57.014Z,3.10
2022-09-23T03:52:26.360Z,3.13
2022-09-23T03:54:53.896Z,3.13
2022-09-23T03:57:24.272Z,3.03
2022-09-23T04:00:02.814Z,2.80
2022-09-23T04:02:39.370Z,2.53
2022-09-23T04:05:08.017Z,3.08
2022-09-23T04:07:35.459Z,3.30
2022-09-23T04:10:02.638Z,2.90
2022-09-23T04:12:29.909Z,2.95
2022-09-23T04:15:00.213Z,3.20
2022-09-23T04:17:30.280Z,2.72
2022-09-23T04:20:00.028Z,3.28
2022-09-23T04:22:27.215Z,4.55
2022-09-23T04:25:00.555Z,3.10
2022-09-23T04:27:27.667Z,2.67
2022-09-23T04:29:54.791Z,2.90
2022-09-23T04:32:21.867Z,3.47
2022-09-23T04:34:48.820Z,3.00
2022-09-23T04:37:15.893Z,2.92
2022-09-23T04:39:43.693Z,2.95
2022-09-23T04:42:11.473Z,3.42
2022-09-23T04:44:39.222Z,3.08
2022-09-23T04:47:06.823Z,3.13
2022-09-23T04:49:34.342Z,3.10
2022-09-23T04:52:02.953Z,3.60
2022-09-23T04:54:30.573Z,2.95
2022-09-23T04:56:57.802Z,3.83
2022-09-23T04:59:25.209Z,3.97
2022-09-23T05:01:52.831Z,3.25
2022-09-23T05:04:25.643Z,3.70
2022-09-23T05:06:52.679Z,3.93
2022-09-23T05:09:19.698Z,4.43
2022-09-23T05:11:47.346Z,4.05
2022-09-23T05:14:14.729Z,3.80
2022-09-23T05:16:42.095Z,3.70
2022-09-23T05:19:09.168Z,3.85
2022-09-23T05:21:38.037Z,3.35
2022-09-23T05:24:05.906Z,3.47
2022-09-23T05:26:33.715Z,4.05
2022-09-23T05:29:01.047Z,3.60
2022-09-23T05:31:29.836Z,3.58
2022-09-23T05:33:59.823Z,3.72
2022-09-23T05:36:34.303Z,3.47
2022-09-23T05:39:08.659Z,4.00
2022-09-23T05:41:38.515Z,3.88
2022-09-23T05:44:08.493Z,4.80
2022-09-23T05:46:39.037Z,3.65
2022-09-23T05:49:06.904Z,3.50
2022-09-23T05:51:35.928Z,4.28
2022-09-23T05:54:05.654Z,3.78
2022-09-23T05:56:34.935Z,3.78
2022-09-23T05:59:03.083Z,4.82
2022-09-23T06:01:34.322Z,3.30
2022-09-23T06:04:07.001Z,4.43
2022-09-23T06:06:40.363Z,3.83
2022-09-23T06:09:11.744Z,3.72
2022-09-23T06:11:42.709Z,4.20
2022-09-23T06:14:13.284Z,3.83
2022-09-23T06:16:43.818Z,3.90
2022-09-23T06:19:14.379Z,4.97
2022-09-23T06:21:42.063Z,4.07
2022-09-23T06:24:16.341Z,3.90
2022-09-23T06:26:48.315Z,4.22
2022-09-23T06:29:15.607Z,4.22
2022-09-23T06:31:43.627Z,4.55
2022-09-23T06:34:14.836Z,4.47
2022-09-23T06:36:45.845Z,4.35
2022-09-23T06:39:17.043Z,4.50
2022-09-23T06:41:45.640Z,5.13
2022-09-23T06:44:15.021Z,5.32
2022-09-23T06:46:44.435Z,5.03
2022-09-23T06:49:12.615Z,4.35
2022-09-23T06:51:40.511Z,4.82
2022-09-23T06:54:07.857Z,4.43
2022-09-23T06:56:39.032Z,4.22
2022-09-23T06:59:11.264Z,4.32
2022-09-23T07:01:39.290Z,5.03
2022-09-23T07:04:09.720Z,4.65
2022-09-23T07:06:39.084Z,3.92
2022-09-23T07:09:08.746Z,3.88
2022-09-23T07:11:36.376Z,4.40
2022-09-23T07:14:03.897Z,4.82
2022-09-23T07:16:33.237Z,4.97
2022-09-23T07:19:00.407Z,4.45
2022-09-23T07:21:28.954Z,5.05
2022-09-23T07:23:58.387Z,3.85
2022-09-23T07:26:30.001Z,4.32
2022-09-23T07:29:05.332Z,4.20
2022-09-23T07:31:39.543Z,4.18
2022-09-23T07:34:11.926Z,4.68
2022-09-23T07:36:41.258Z,4.30
2022-09-23T07:39:11.852Z,4.63
2022-09-23T07:41:39.647Z,4.63
2022-09-23T07:44:10.063Z,5.05
2022-09-23T07:46:37.562Z,4.30
2022-09-23T07:49:06.084Z,5.07
2022-09-23T07:51:36.871Z,6.20
2022-09-23T07:54:08.247Z,6.18
2022-09-23T07:56:36.561Z,4.95
2022-09-23T07:59:05.479Z,4.55
2022-09-23T08:01:39.447Z,4.47
2022-09-23T08:04:12.650Z,4.82
2022-09-23T08:06:48.053Z,4.38
2022-09-23T08:09:17.164Z,3.90
2022-09-23T08:11:44.621Z,4.35
2022-09-23T08:14:13.818Z,5.50
2022-09-23T08:16:42.682Z,6.55
2022-09-23T08:19:10.250Z,4.90
2022-09-23T08:21:39.577Z,5.85
2022-09-23T08:24:12.005Z,7.00
2022-09-23T08:26:39.304Z,10.18
2022-09-23T08:29:09.961Z,9.75
2022-09-23T08:31:37.436Z,7.45
2022-09-23T08:34:04.602Z,4.78
2022-09-23T08:36:32.546Z,5.25
2022-09-23T08:38:59.889Z,4.25
2022-09-23T08:41:44.133Z,3.20
2022-09-23T08:44:24.226Z,3.10
2022-09-23T08:46:57.182Z,3.40
2022-09-23T08:49:39.849Z,5.28
2022-09-23T08:52:18.223Z,4.90
2022-09-23T08:54:45.931Z,2.85
2022-09-23T08:57:35.489Z,2.45
2022-09-23T09:00:04.494Z,2.45
2022-09-23T09:02:36.682Z,3.25
2022-09-23T09:05:10.230Z,2.92
2022-09-23T09:07:41.394Z,2.78
2022-09-23T09:10:20.235Z,2.92
2022-09-23T09:13:07.706Z,2.25
2022-09-23T09:15:45.751Z,1.65
2022-09-23T09:18:23.244Z,1.95
2022-09-23T09:21:14.161Z,2.30
2022-09-23T09:23:50.459Z,2.88
2022-09-23T09:26:40.469Z,2.30
2022-09-23T09:29:35.689Z,1.80
2022-09-23T09:32:14.272Z,2.20
2022-09-23T09:34:50.101Z,1.88
2022-09-23T09:37:36.045Z,2.17
2022-09-23T09:40:07.978Z,1.80
2022-09-23T09:42:41.125Z,1.73
2022-09-23T09:45:29.131Z,1.90
2022-09-23T09:48:21.076Z,1.85
2022-09-23T09:50:52.270Z,2.00
2022-09-23T09:53:29.639Z,2.08
2022-09-23T09:56:07.120Z,2.17
2022-09-23T09:58:48.980Z,2.10
2022-09-23T10:01:29.369Z,2.00
2022-09-23T10:07:07.569Z,2.22
2022-09-23T10:09:39.697Z,2.80
2022-09-23T10:12:20.540Z,2.05
2022-09-23T10:14:52.148Z,2.60
2022-09-23T10:17:24.634Z,1.98
2022-09-23T10:20:00.795Z,2.30
2022-09-23T10:22:34.000Z,1.67
2022-09-23T10:25:07.783Z,1.73
2022-09-23T10:27:36.684Z,2.28
2022-09-23T10:30:23.910Z,2.38
2022-09-23T10:32:53.331Z,1.90
2022-09-23T10:35:23.981Z,1.60
2022-09-23T10:38:00.058Z,2.15
2022-09-23T10:40:49.327Z,2.40
2022-09-23T10:43:38.171Z,2.50
2022-09-23T10:46:46.188Z,2.20
2022-09-23T10:49:37.878Z,1.95
2022-09-23T10:52:28.126Z,1.77
2022-09-23T10:55:11.967Z,1.63
2022-09-23T10:57:46.318Z,2.38
2022-09-23T11:00:22.495Z,1.80
2022-09-23T11:02:59.019Z,2.63
2022-09-23T11:05:32.836Z,2.50
2022-09-23T11:08:24.056Z,2.35
2022-09-23T11:11:11.361Z,1.92
2022-09-23T11:14:19.254Z,1.73
2022-09-23T11:17:08.376Z,1.30
2022-09-23T11:19:50.744Z,1.83
2022-09-23T11:22:32.409Z,2.30
2022-09-23T11:25:18.440Z,1.85
2022-09-23T11:28:04.226Z,1.80
2022-09-23T11:30:47.230Z,1.42
2022-09-23T11:33:45.235Z,1.55
2022-09-23T11:36:55.215Z,2.47
2022-09-23T11:39:33.067Z,1.42
2022-09-23T11:42:01.943Z,1.80
2022-09-23T11:44:50.251Z,2.00
2022-09-23T11:47:35.235Z,1.90
2022-09-23T11:50:34.121Z,1.63
2022-09-23T11:53:14.330Z,3.45
2022-09-23T11:55:57.964Z,1.60
2022-09-23T11:58:33.712Z,2.28
2022-09-23T12:01:37.974Z,1.60
2022-09-23T12:04:31.929Z,1.85
2022-09-23T12:07:03.360Z,1.40
2022-09-23T12:09:59.314Z,1.88
2022-09-23T12:12:27.263Z,2.05
2022-09-23T12:15:32.017Z,1.73
2022-09-23T12:18:17.490Z,1.60
2022-09-23T12:21:07.585Z,1.42
2022-09-23T12:24:25.055Z,1.88
2022-09-23T12:26:56.993Z,1.80
2022-09-23T12:31:55.935Z,1.70
2022-09-23T12:35:00.409Z,1.50
2022-09-23T12:40:47.718Z,2.15
2022-09-23T12:43:40.976Z,1.60
2022-09-23T12:46:28.261Z,1.58
2022-09-23T12:49:00.191Z,1.60
2022-09-23T12:51:35.969Z,1.63
2022-09-23T12:54:06.356Z,2.08
2022-09-23T12:56:36.647Z,2.47
2022-09-23T12:59:27.640Z,1.55
2022-09-23T13:01:56.373Z,1.75
2022-09-23T13:05:01.248Z,1.42
2022-09-23T13:07:34.908Z,1.50
2022-09-23T13:12:40.908Z,1.52
2022-09-23T13:15:34.606Z,1.45
2022-09-23T13:18:25.337Z,1.65
2022-09-23T13:20:55.282Z,1.55
2022-09-23T13:23:35.589Z,2.08
2022-09-23T13:26:14.730Z,2.08
2022-09-23T13:28:59.732Z,1.95
2022-09-23T13:31:27.470Z,1.90
2022-09-23T13:34:08.544Z,1.75
2022-09-23T13:36:50.167Z,2.00
2022-09-23T13:39:27.993Z,2.28
2022-09-23T13:42:05.413Z,2.00
2022-09-23T13:44:32.975Z,2.33
2022-09-23T13:47:03.692Z,2.05
2022-09-23T13:49:35.858Z,2.13
2022-09-23T13:52:03.936Z,2.85
2022-09-23T13:54:36.891Z,1.52
2022-09-23T13:57:08.338Z,1.42
2022-09-23T13:59:42.519Z,1.73
2022-09-23T14:02:15.165Z,1.92
2022-09-23T14:04:44.161Z,1.52
2022-09-23T14:07:14.645Z,1.95
2022-09-23T14:09:48.031Z,1.58
2022-09-23T14:12:24.581Z,2.22
2022-09-23T14:14:53.174Z,2.25
2022-09-23T14:17:26.888Z,2.13
2022-09-23T14:19:55.131Z,1.55
2022-09-23T14:22:31.897Z,1.50
2022-09-23T14:25:02.421Z,2.38
2022-09-23T14:27:37.097Z,1.60
2022-09-23T14:30:05.347Z,2.40
2022-09-23T14:32:36.139Z,1.50
2022-09-23T14:35:04.365Z,2.63
2022-09-23T14:37:56.296Z,2.00
2022-09-23T14:40:27.006Z,1.75
2022-09-23T14:43:08.357Z,2.05
2022-09-23T14:45:39.806Z,2.28
2022-09-23T14:48:14.556Z,1.80
2022-09-23T14:50:50.102Z,1.90
2022-09-23T14:53:26.363Z,1.88
2022-09-23T14:56:09.165Z,2.00
2022-09-23T14:58:52.606Z,1.83
2022-09-23T15:01:39.627Z,1.83
2022-09-23T15:04:38.112Z,1.60
2022-09-23T15:07:18.333Z,1.52
2022-09-23T15:09:46.234Z,1.90
2022-09-23T15:12:21.011Z,1.83
2022-09-23T15:14:57.373Z,1.67
2022-09-23T15:17:38.507Z,1.70
2022-09-23T15:20:16.989Z,1.95
2022-09-23T15:22:51.352Z,1.90
2022-09-23T15:25:42.234Z,1.75
2022-09-23T15:28:12.785Z,2.28
2022-09-23T15:30:44.133Z,2.13
2022-09-23T15:33:16.254Z,2.35
2022-09-23T15:35:51.830Z,1.70
2022-09-23T15:38:18.995Z,1.80
2022-09-23T15:40:46.881Z,2.00
2022-09-23T15:43:23.701Z,2.15
2022-09-23T15:46:11.861Z,1.90
2022-09-23T15:48:58.434Z,1.95
2022-09-23T15:51:28.380Z,2.20
2022-09-23T15:53:56.752Z,1.92
2022-09-23T15:56:27.245Z,1.90
2022-09-23T15:58:55.479Z,2.03
2022-09-23T16:01:34.129Z,2.10
2022-09-23T16:04:08.631Z,1.70
2022-09-23T16:06:36.374Z,1.77
2022-09-23T16:09:05.375Z,1.88
2022-09-23T16:11:33.369Z,1.63
2022-09-23T16:14:01.699Z,2.10
2022-09-23T16:16:29.510Z,2.13
2022-09-23T16:18:59.145Z,1.70
2022-09-23T16:21:29.280Z,2.50
2022-09-23T16:23:58.532Z,2.78
2022-09-23T16:26:35.143Z,2.25
2022-09-23T16:29:04.684Z,2.97
2022-09-23T16:31:32.073Z,2.67
2022-09-23T16:34:02.881Z,2.13
2022-09-23T16:36:31.877Z,2.63
2022-09-23T16:39:04.904Z,2.05
2022-09-23T16:41:33.246Z,2.63
2022-09-23T16:44:07.830Z,2.67
2022-09-23T16:46:35.858Z,2.25
2022-09-23T16:49:03.883Z,3.17
2022-09-23T16:51:38.679Z,2.20
2022-09-23T16:54:13.250Z,2.35
2022-09-23T16:56:44.940Z,2.03
2022-09-23T16:59:14.918Z,2.88
2022-09-23T17:02:01.832Z,2.13
2022-09-23T17:04:29.325Z,1.85
2022-09-23T17:06:57.604Z,2.47
2022-09-23T17:09:29.713Z,2.95
2022-09-23T17:12:17.259Z,2.60
2022-09-23T17:14:51.079Z,2.72
2022-09-23T17:17:26.359Z,3.08
2022-09-23T17:19:53.976Z,2.63
2022-09-23T17:22:24.889Z,2.83
2022-09-23T17:24:56.668Z,2.47
2022-09-23T17:27:25.268Z,2.40
2022-09-23T17:29:52.512Z,2.50
2022-09-23T17:32:21.724Z,2.65
2022-09-23T17:34:48.895Z,2.75
2022-09-23T17:37:16.418Z,2.97
2022-09-23T17:39:47.172Z,2.72
2022-09-23T17:42:15.661Z,2.80
2022-09-23T17:44:43.610Z,2.63
2022-09-23T17:47:11.178Z,2.92
2022-09-23T17:49:38.537Z,3.10
2022-09-23T17:52:08.469Z,2.70
2022-09-23T17:54:41.006Z,2.63
2022-09-23T17:57:08.718Z,3.08
2022-09-23T17:59:35.823Z,2.63
2022-09-23T18:02:03.211Z,2.60
2022-09-23T18:04:30.740Z,2.90
2022-09-23T18:06:58.164Z,2.42
2022-09-23T18:09:28.973Z,2.08
2022-09-23T18:12:01.662Z,2.35
2022-09-23T18:14:32.454Z,2.08
2022-09-23T18:17:00.313Z,2.20
2022-09-23T18:19:30.759Z,2.40
2022-09-23T18:22:02.713Z,2.70
2022-09-23T18:24:35.074Z,2.28
2022-09-23T18:27:02.847Z,2.35
2022-09-23T18:29:31.718Z,2.28
2022-09-23T18:31:59.883Z,2.33
2022-09-23T18:34:30.813Z,3.58
2022-09-23T18:36:58.564Z,3.25
2022-09-23T18:39:26.128Z,3.00
2022-09-23T18:41:53.584Z,3.17
2022-09-23T18:44:20.835Z,2.65
2022-09-23T18:46:49.913Z,2.53
2022-09-23T18:49:35.976Z,3.10
2022-09-23T18:52:03.465Z,3.20
2022-09-23T18:54:34.125Z,3.75
2022-09-23T18:57:06.168Z,4.68
2022-09-23T18:59:33.678Z,3.53
2022-09-23T19:02:04.145Z,4.22
2022-09-23T19:04:32.624Z,3.47
2022-09-23T19:07:02.356Z,3.75
2022-09-23T19:09:29.582Z,4.43
2022-09-23T19:11:58.168Z,4.35
2022-09-23T19:14:26.474Z,4.47
2022-09-23T19:16:57.456Z,3.88
2022-09-23T19:19:25.806Z,5.65
2022-09-23T19:21:54.935Z,8.32
2022-09-23T19:24:24.351Z,11.50
2022-09-23T19:26:54.257Z,12.15
2022-09-23T19:29:22.155Z,11.38
2022-09-23T19:31:49.812Z,12.77
2022-09-23T19:34:40.455Z,8.80
2022-09-23T19:37:11.948Z,9.82
2022-09-23T19:39:51.600Z,6.75
2022-09-23T19:42:19.642Z,6.68
2022-09-23T19:45:03.562Z,5.95
2022-09-23T19:47:44.985Z,3.90
2022-09-23T19:50:18.227Z,4.13
2022-09-23T19:52:52.143Z,3.92
2022-09-23T19:55:22.551Z,3.75
2022-09-23T19:57:51.594Z,3.35
2022-09-23T20:00:20.618Z,3.65
2022-09-23T20:02:49.149Z,3.45
2022-09-23T20:05:20.262Z,3.53
2022-09-23T20:07:47.906Z,3.50
2022-09-23T20:10:15.678Z,3.47
2022-09-23T20:12:44.108Z,3.38
2022-09-23T20:15:14.872Z,3.63
2022-09-23T20:17:44.339Z,3.78
2022-09-23T20:20:13.609Z,3.35
2022-09-23T20:22:42.011Z,3.40
2022-09-23T20:25:14.262Z,4.05
2022-09-23T20:27:49.898Z,4.38
2022-09-23T20:30:23.440Z,4.32
2022-09-23T20:32:51.503Z,4.50
2022-09-23T20:35:18.756Z,3.42
2022-09-23T20:37:48.422Z,3.35
2022-09-23T20:40:16.340Z,3.45
2022-09-23T20:42:43.860Z,5.13
2022-09-23T20:45:14.458Z,3.85
2022-09-23T20:47:44.112Z,3.67
2022-09-23T20:50:14.010Z,4.93
2022-09-23T20:52:41.888Z,2.90
2022-09-23T20:55:09.404Z,3.65
2022-09-23T20:57:36.675Z,3.90
2022-09-23T21:00:04.895Z,2.90
2022-09-23T21:02:32.631Z,3.08
2022-09-23T21:05:02.579Z,3.35
2022-09-23T21:07:33.522Z,4.28
2022-09-23T21:10:05.706Z,3.08
2022-09-23T21:12:33.009Z,3.33
2022-09-23T21:15:00.757Z,3.15
2022-09-23T21:17:28.615Z,3.90
2022-09-23T21:19:55.836Z,2.83
2022-09-23T21:22:26.603Z,2.83
2022-09-23T21:25:26.265Z,3.88
2022-09-23T21:27:47.793Z,3.50
2022-09-23T21:30:17.665Z,3.20
2022-09-23T21:32:51.254Z,3.75
2022-09-23T21:35:19.436Z,4.10
2022-09-23T21:37:49.402Z,3.65
2022-09-23T21:40:37.335Z,3.95
2022-09-23T21:43:06.841Z,3.78
2022-09-23T21:45:34.344Z,3.45
2022-09-23T21:48:01.853Z,3.75
2022-09-23T21:50:30.947Z,3.80
2022-09-23T21:52:58.587Z,3.70
2022-09-23T21:55:26.028Z,3.35
2022-09-23T21:57:53.669Z,3.58
2022-09-23T22:00:26.549Z,4.32
2022-09-23T22:02:56.753Z,3.80
2022-09-23T22:05:24.308Z,4.13
2022-09-23T22:07:55.110Z,2.88
2022-09-23T22:10:22.877Z,3.60
2022-09-23T22:12:52.457Z,2.97
2022-09-23T22:15:19.921Z,3.63
2022-09-23T22:17:50.407Z,3.47
2022-09-23T22:20:17.746Z,3.85
2022-09-23T22:22:45.178Z,3.00
2022-09-23T22:25:13.168Z,3.60
2022-09-23T22:28:00.184Z,3.70
2022-09-23T22:30:45.847Z,3.25
2022-09-23T22:33:18.327Z,3.10
2022-09-23T22:35:45.747Z,3.33
2022-09-23T22:38:12.888Z,2.78
2022-09-23T22:40:43.522Z,3.58
2022-09-23T22:43:13.821Z,3.30
2022-09-23T22:45:49.620Z,5.10
2022-09-23T22:48:18.359Z,3.95
2022-09-23T22:50:46.333Z,4.70
2022-09-23T22:53:14.142Z,3.33
2022-09-23T22:55:43.076Z,3.20
2022-09-23T22:58:30.676Z,3.70
2022-09-23T23:01:04.827Z,4.05
2022-09-23T23:03:35.499Z,3.35
2022-09-23T23:08:33.920Z,2.85
2022-09-23T23:11:07.537Z,2.60
2022-09-23T23:13:34.873Z,3.40
2022-09-23T23:16:07.520Z,2.63
2022-09-23T23:18:37.591Z,2.92
2022-09-23T23:21:18.260Z,2.75
2022-09-23T23:23:52.602Z,2.33
2022-09-23T23:26:23.233Z,2.53
2022-09-23T23:28:52.369Z,2.60
2022-09-23T23:31:24.081Z,2.13
2022-09-23T23:33:51.404Z,2.53
2022-09-23T23:36:21.140Z,2.45
2022-09-23T23:38:50.221Z,2.88
2022-09-23T23:41:20.713Z,1.83
2022-09-23T23:43:52.363Z,1.73
2022-09-23T23:46:26.762Z,1.38
2022-09-23T23:48:55.753Z,1.65
2022-09-23T23:51:24.847Z,2.17
2022-09-23T23:53:54.153Z,2.22
2022-09-23T23:56:24.252Z,3.13
